createdAt,value
2023-02-16T00:01:48.046Z,48.42
2023-02-16T00:04:22.969Z,46.78
2023-02-16T00:06:49.897Z,41.15
2023-02-16T00:09:17.238Z,45.10
2023-02-16T00:12:02.577Z,44.17
2023-02-16T00:14:29.798Z,45.35
2023-02-16T00:16:57.482Z,40.55
2023-02-16T00:19:27.589Z,47.33
2023-02-16T00:21:56.128Z,47.42
2023-02-16T00:24:23.582Z,47.50
2023-02-16T00:26:50.677Z,43.92
2023-02-16T00:29:23.376Z,45.72
2023-02-16T00:31:50.543Z,45.80
2023-02-16T00:34:31.249Z,44.42
2023-02-16T00:36:58.873Z,42.97
2023-02-16T00:39:26.229Z,47.10
2023-02-16T00:41:58.011Z,43.70
2023-02-16T00:44:34.138Z,45.80
2023-02-16T00:47:25.807Z,46.95
2023-02-16T00:49:53.718Z,44.67
2023-02-16T00:52:23.660Z,43.17
2023-02-16T00:54:50.718Z,43.97
2023-02-16T00:57:17.959Z,45.05
2023-02-16T00:59:45.466Z,48.97
2023-02-16T01:02:12.187Z,44.88
2023-02-16T01:04:39.524Z,45.47
2023-02-16T01:07:30.526Z,45.75
2023-02-16T01:10:15.990Z,43.00
2023-02-16T01:12:42.799Z,50.88
2023-02-16T01:15:12.725Z,47.38
2023-02-16T01:17:39.469Z,47.03
2023-02-16T01:20:19.356Z,45.97
2023-02-16T01:22:46.147Z,47.88
2023-02-16T01:25:14.292Z,47.90
2023-02-16T01:27:41.200Z,45.08
2023-02-16T01:30:21.683Z,48.30
2023-02-16T01:32:51.892Z,45.25
2023-02-16T01:35:23.637Z,49.75
2023-02-16T01:37:50.452Z,49.13
2023-02-16T01:40:35.278Z,47.65
2023-02-16T01:43:21.892Z,49.38
2023-02-16T01:45:54.645Z,48.47
2023-02-16T01:48:25.129Z,44.58
2023-02-16T01:50:57.704Z,50.88
2023-02-16T01:53:48.937Z,48.28
2023-02-16T01:56:25.419Z,51.83
2023-02-16T01:58:54.662Z,52.55
2023-02-16T02:01:42.017Z,50.38
2023-02-16T02:04:48.818Z,46.35
2023-02-16T02:07:38.634Z,47.92
2023-02-16T02:10:20.220Z,49.20
2023-02-16T02:13:12.331Z,51.55
2023-02-16T02:15:39.085Z,48.38
2023-02-16T02:18:06.213Z,52.53
2023-02-16T02:21:24.058Z,51.70
2023-02-16T02:24:04.864Z,49.45
2023-02-16T02:26:55.897Z,50.75
2023-02-16T02:29:46.741Z,48.22
2023-02-16T02:32:31.862Z,48.40
2023-02-16T02:35:17.528Z,52.85
2023-02-16T02:37:47.226Z,50.75
2023-02-16T02:40:40.931Z,53.08
2023-02-16T02:43:13.935Z,51.03
2023-02-16T02:45:54.448Z,49.45
2023-02-16T02:48:21.224Z,46.85
2023-02-16T02:51:08.797Z,47.13
2023-02-16T02:53:38.192Z,52.40
2023-02-16T02:56:23.887Z,49.30
2023-02-16T02:59:11.174Z,52.22
2023-02-16T03:01:38.481Z,53.15
2023-02-16T03:04:05.563Z,56.45
2023-02-16T03:06:40.875Z,53.08
2023-02-16T03:09:11.524Z,48.67
2023-02-16T03:11:57.068Z,48.60
2023-02-16T03:14:30.901Z,56.20
2023-02-16T03:17:18.330Z,50.85
2023-02-16T03:20:05.384Z,53.80
2023-02-16T03:22:51.055Z,52.58
2023-02-16T03:25:36.449Z,53.95
2023-02-16T03:30:49.681Z,52.42
2023-02-16T03:33:16.785Z,54.90
2023-02-16T03:35:43.697Z,49.50
2023-02-16T03:38:10.738Z,53.10
2023-02-16T03:40:39.570Z,54.35
2023-02-16T03:43:08.114Z,51.25
2023-02-16T03:45:37.117Z,54.40
2023-02-16T03:48:04.260Z,48.65
2023-02-16T03:50:31.273Z,51.28
2023-02-16T03:53:07.598Z,52.20
2023-02-16T03:55:42.343Z,51.53
2023-02-16T03:58:10.963Z,51.33
2023-02-16T04:00:37.805Z,51.25
2023-02-16T04:03:05.693Z,51.30
2023-02-16T04:05:32.624Z,47.95
2023-02-16T04:07:59.687Z,51.00
2023-02-16T04:10:26.549Z,53.13
2023-02-16T04:12:53.701Z,51.08
2023-02-16T04:15:22.267Z,54.00
2023-02-16T04:17:49.596Z,54.65
2023-02-16T04:20:18.831Z,54.50
2023-02-16T04:22:46.038Z,54.78
2023-02-16T04:25:12.883Z,53.95
2023-02-16T04:27:40.024Z,52.67
2023-02-16T04:30:07.491Z,54.50
2023-02-16T04:32:34.569Z,49.97
2023-02-16T04:35:01.326Z,54.28
2023-02-16T04:37:28.373Z,53.83
2023-02-16T04:39:55.230Z,56.80
2023-02-16T04:42:22.352Z,56.60
2023-02-16T04:44:49.090Z,51.55
2023-02-16T04:47:16.173Z,54.35
2023-02-16T04:49:42.989Z,57.53
2023-02-16T04:52:11.961Z,50.40
2023-02-16T04:54:38.788Z,56.42
2023-02-16T04:57:05.830Z,54.55
2023-02-16T04:59:32.619Z,56.60
2023-02-16T05:01:59.781Z,58.60
2023-02-16T05:04:26.683Z,53.20
2023-02-16T05:06:53.830Z,51.58
2023-02-16T05:09:20.773Z,54.50
2023-02-16T05:12:06.529Z,58.30
2023-02-16T05:14:46.993Z,56.95
2023-02-16T05:17:16.575Z,55.17
2023-02-16T05:19:44.618Z,55.13
2023-02-16T05:22:11.895Z,56.67
2023-02-16T05:24:39.152Z,56.42
2023-02-16T05:27:07.722Z,55.00
2023-02-16T05:29:34.707Z,61.53
2023-02-16T05:32:04.377Z,57.75
2023-02-16T05:34:31.586Z,60.05
2023-02-16T05:36:58.631Z,55.05
2023-02-16T05:39:25.899Z,56.42
2023-02-16T05:41:52.974Z,58.40
2023-02-16T05:44:19.769Z,57.13
2023-02-16T05:46:46.868Z,56.85
2023-02-16T05:49:14.408Z,53.97
2023-02-16T05:51:41.738Z,56.17
2023-02-16T05:54:10.680Z,50.90
2023-02-16T05:56:37.785Z,56.90
2023-02-16T05:59:04.521Z,56.22
2023-02-16T06:01:31.578Z,52.38
2023-02-16T06:03:58.397Z,54.80
2023-02-16T06:06:25.470Z,54.03
2023-02-16T06:08:52.514Z,49.60
2023-02-16T06:11:37.881Z,57.03
2023-02-16T06:14:12.735Z,54.15
2023-02-16T06:16:41.051Z,55.60
2023-02-16T06:19:07.849Z,54.17
2023-02-16T06:21:35.390Z,54.03
2023-02-16T06:24:02.233Z,54.42
2023-02-16T06:26:29.343Z,53.03
2023-02-16T06:28:56.165Z,54.35
2023-02-16T06:31:23.820Z,53.72
2023-02-16T06:33:51.015Z,55.28
2023-02-16T06:36:18.250Z,57.55
2023-02-16T06:38:45.515Z,56.75
2023-02-16T06:41:12.723Z,56.08
2023-02-16T06:43:39.529Z,55.97
2023-02-16T06:46:06.740Z,53.45
2023-02-16T06:48:33.649Z,57.33
2023-02-16T06:51:00.710Z,57.22
2023-02-16T06:53:27.531Z,55.90
2023-02-16T06:55:54.666Z,57.53
2023-02-16T06:58:21.536Z,56.45
2023-02-16T07:00:48.684Z,57.50
2023-02-16T07:03:15.561Z,58.58
2023-02-16T07:05:44.180Z,58.60
2023-02-16T07:08:11.135Z,57.08
2023-02-16T07:10:49.288Z,61.78
2023-02-16T07:13:17.040Z,56.55
2023-02-16T07:15:44.140Z,61.55
2023-02-16T07:18:10.875Z,56.60
2023-02-16T07:20:38.039Z,57.55
2023-02-16T07:23:04.952Z,57.38
2023-02-16T07:25:32.094Z,55.38
2023-02-16T07:27:58.909Z,57.00
2023-02-16T07:30:25.990Z,55.72
2023-02-16T07:32:52.792Z,53.53
2023-02-16T07:35:20.151Z,61.55
2023-02-16T07:37:46.991Z,56.13
2023-02-16T07:40:14.022Z,55.47
2023-02-16T07:42:40.799Z,60.22
2023-02-16T07:45:08.294Z,55.72
2023-02-16T07:47:35.092Z,52.28
2023-02-16T07:50:02.207Z,57.80
2023-02-16T07:52:31.238Z,55.50
2023-02-16T07:55:01.182Z,57.50
2023-02-16T07:57:28.200Z,54.95
2023-02-16T07:59:55.650Z,55.03
2023-02-16T08:02:22.742Z,51.67
2023-02-16T08:04:50.017Z,54.80
2023-02-16T08:07:17.376Z,54.65
2023-02-16T08:09:44.622Z,53.42
2023-02-16T08:12:12.465Z,50.83
2023-02-16T08:14:39.901Z,54.40
2023-02-16T08:17:07.676Z,51.88
2023-02-16T08:19:34.987Z,53.67
2023-02-16T08:22:02.552Z,51.03
2023-02-16T08:24:29.669Z,54.50
2023-02-16T08:26:56.704Z,51.25
2023-02-16T08:29:23.796Z,56.80
2023-02-16T08:31:50.728Z,53.63
2023-02-16T08:34:18.791Z,54.70
2023-02-16T08:36:53.251Z,53.47
2023-02-16T08:39:21.037Z,50.67
2023-02-16T08:41:48.497Z,46.67
2023-02-16T08:44:16.081Z,56.30
2023-02-16T08:46:43.844Z,54.55
2023-02-16T08:49:11.936Z,57.80
2023-02-16T08:51:42.696Z,56.30
2023-02-16T08:54:13.595Z,54.75
2023-02-16T08:56:41.623Z,58.03
2023-02-16T08:59:08.768Z,54.13
2023-02-16T09:01:35.987Z,56.72
2023-02-16T09:04:03.131Z,56.05
2023-02-16T09:06:29.866Z,53.25
2023-02-16T09:08:57.276Z,48.30
2023-02-16T09:11:24.532Z,53.47
2023-02-16T09:13:51.746Z,52.60
2023-02-16T09:16:20.613Z,55.72
2023-02-16T09:18:48.171Z,55.30
2023-02-16T09:21:20.988Z,50.90
2023-02-16T09:23:49.344Z,54.72
2023-02-16T09:26:18.081Z,54.22
2023-02-16T09:28:45.791Z,53.55
2023-02-16T09:31:20.309Z,59.45
2023-02-16T09:33:47.485Z,51.83
2023-02-16T09:36:14.293Z,53.83
2023-02-16T09:38:41.443Z,54.15
2023-02-16T09:41:23.446Z,52.33
2023-02-16T09:43:57.973Z,49.60
2023-02-16T09:46:25.381Z,54.38
2023-02-16T09:48:54.773Z,52.13
2023-02-16T09:51:48.196Z,56.55
2023-02-16T09:54:28.324Z,54.03
2023-02-16T09:56:58.180Z,45.58
2023-02-16T09:59:51.541Z,50.22
2023-02-16T10:02:39.909Z,48.40
2023-02-16T10:05:20.368Z,49.30
2023-02-16T10:07:57.598Z,50.28
2023-02-16T10:10:46.242Z,50.90
2023-02-16T10:13:26.235Z,48.55
2023-02-16T10:15:54.164Z,50.53
2023-02-16T10:18:42.193Z,47.72
2023-02-16T10:21:15.362Z,50.80
2023-02-16T10:23:48.609Z,48.72
2023-02-16T10:26:28.597Z,46.97
2023-02-16T10:28:56.869Z,48.05
2023-02-16T10:31:27.021Z,47.33
2023-02-16T10:34:15.611Z,45.72
2023-02-16T10:37:09.608Z,46.83
2023-02-16T10:39:42.726Z,51.13
2023-02-16T10:42:25.100Z,45.60
2023-02-16T10:45:06.095Z,48.78
2023-02-16T10:47:37.401Z,48.67
2023-02-16T10:50:09.887Z,49.53
2023-02-16T10:52:38.133Z,48.25
2023-02-16T10:55:05.779Z,48.90
2023-02-16T10:57:33.192Z,47.72
2023-02-16T11:00:02.309Z,53.92
2023-02-16T11:02:38.207Z,56.80
2023-02-16T11:05:32.330Z,62.35
2023-02-16T11:08:01.716Z,68.22
2023-02-16T11:10:51.922Z,64.13
2023-02-16T11:13:33.961Z,62.40
2023-02-16T11:16:05.581Z,63.58
2023-02-16T11:18:36.388Z,64.93
2023-02-16T11:21:03.911Z,63.22
2023-02-16T11:23:44.317Z,53.70
2023-02-16T11:26:11.805Z,59.20
2023-02-16T11:28:40.914Z,57.95
2023-02-16T11:31:12.421Z,59.20
2023-02-16T11:33:40.316Z,51.35
2023-02-16T11:36:19.787Z,52.60
2023-02-16T11:39:16.524Z,57.08
2023-02-16T11:44:33.186Z,50.40
2023-02-16T11:47:04.414Z,52.47
2023-02-16T11:49:36.980Z,50.20
2023-02-16T11:52:23.189Z,49.90
2023-02-16T11:54:51.900Z,46.58
2023-02-16T11:57:29.764Z,47.40
2023-02-16T11:59:57.305Z,50.90
2023-02-16T12:02:55.011Z,47.45
2023-02-16T12:05:47.333Z,51.70
2023-02-16T12:08:26.275Z,49.53
2023-02-16T12:11:19.491Z,52.90
2023-02-16T12:13:46.289Z,48.92
2023-02-16T12:16:32.104Z,48.38
2023-02-16T12:19:04.637Z,48.10
2023-02-16T12:21:40.839Z,49.88
2023-02-16T12:24:44.827Z,49.28
2023-02-16T12:27:39.193Z,45.90
2023-02-16T12:30:08.076Z,49.25
2023-02-16T12:32:57.788Z,45.88
2023-02-16T12:35:59.151Z,49.72
2023-02-16T12:38:39.692Z,48.38
2023-02-16T12:41:50.964Z,45.63
2023-02-16T12:44:21.179Z,47.72
2023-02-16T12:46:49.814Z,45.20
2023-02-16T12:49:24.597Z,47.45
2023-02-16T12:51:59.238Z,52.42
2023-02-16T12:54:35.660Z,50.05
2023-02-16T12:57:08.316Z,47.03
2023-02-16T12:59:56.634Z,49.83
2023-02-16T13:02:27.769Z,45.90
2023-02-16T13:05:03.227Z,47.47
2023-02-16T13:07:37.378Z,46.92
2023-02-16T13:10:14.733Z,48.13
2023-02-16T13:12:49.846Z,45.85
2023-02-16T13:15:20.693Z,45.75
2023-02-16T13:17:50.034Z,47.50
2023-02-16T13:20:19.815Z,48.20
2023-02-16T13:23:40.430Z,42.42
2023-02-16T13:26:26.385Z,42.42
2023-02-16T13:31:41.843Z,47.08
2023-02-16T13:34:12.034Z,47.25
2023-02-16T13:37:03.452Z,46.08
2023-02-16T13:40:08.120Z,50.50
2023-02-16T13:42:44.288Z,47.63
2023-02-16T13:45:19.825Z,46.20
2023-02-16T13:47:48.276Z,44.67
2023-02-16T13:50:35.667Z,46.35
2023-02-16T13:53:19.936Z,46.28
2023-02-16T13:55:47.004Z,44.28
2023-02-16T13:58:14.124Z,46.45
2023-02-16T14:00:48.567Z,48.38
2023-02-16T14:03:21.894Z,49.65
2023-02-16T14:05:53.021Z,45.67
2023-02-16T14:08:24.795Z,45.00
2023-02-16T14:10:53.926Z,49.63
2023-02-16T14:13:28.670Z,51.65
2023-02-16T14:15:56.750Z,50.13
2023-02-16T14:18:36.180Z,50.90
2023-02-16T14:21:07.748Z,49.05
2023-02-16T14:23:35.094Z,46.05
2023-02-16T14:26:03.724Z,48.15
2023-02-16T14:28:35.423Z,47.88
2023-02-16T14:31:12.705Z,49.30
2023-02-16T14:33:49.044Z,47.42
2023-02-16T14:36:18.383Z,51.10
2023-02-16T14:38:49.511Z,47.25
2023-02-16T14:41:22.547Z,54.53
2023-02-16T14:43:58.692Z,49.78
2023-02-16T14:46:47.220Z,50.90
2023-02-16T14:49:48.304Z,50.38
2023-02-16T14:52:41.183Z,48.30
2023-02-16T14:55:14.371Z,47.95
2023-02-16T14:57:41.232Z,42.05
2023-02-16T15:00:31.958Z,46.90
2023-02-16T15:02:59.947Z,52.15
2023-02-16T15:05:29.712Z,56.22
2023-02-16T15:08:14.049Z,50.53
2023-02-16T15:10:41.106Z,48.42
2023-02-16T15:13:07.959Z,54.70
2023-02-16T15:15:46.007Z,60.10
2023-02-16T15:18:23.609Z,59.67
2023-02-16T15:20:53.003Z,56.90
2023-02-16T15:23:24.496Z,54.95
2023-02-16T15:25:58.731Z,58.25
2023-02-16T15:28:39.220Z,56.60
2023-02-16T15:31:18.153Z,59.38
2023-02-16T15:33:54.951Z,57.67
2023-02-16T15:36:35.435Z,58.45
2023-02-16T15:39:13.285Z,56.53
2023-02-16T15:41:43.298Z,58.47
2023-02-16T15:44:34.457Z,57.70
2023-02-16T15:47:15.962Z,55.80
2023-02-16T15:49:42.779Z,56.13
2023-02-16T15:52:21.590Z,57.15
2023-02-16T15:54:48.552Z,57.20
2023-02-16T15:57:19.853Z,56.30
2023-02-16T15:59:48.726Z,55.60
2023-02-16T16:02:34.924Z,60.60
2023-02-16T16:05:03.234Z,60.60
2023-02-16T16:07:42.864Z,56.00
2023-02-16T16:10:15.525Z,55.40
2023-02-16T16:12:42.873Z,61.50
2023-02-16T16:15:15.716Z,61.35
2023-02-16T16:17:42.829Z,59.25
2023-02-16T16:20:24.891Z,58.42
2023-02-16T16:22:56.740Z,61.25
2023-02-16T16:25:35.932Z,60.97
2023-02-16T16:28:06.949Z,63.25
2023-02-16T16:30:34.883Z,64.72
2023-02-16T16:33:02.796Z,71.05
2023-02-16T16:35:37.985Z,61.95
2023-02-16T16:38:06.118Z,64.93
2023-02-16T16:40:37.292Z,75.28
2023-02-16T16:43:04.568Z,70.43
2023-02-16T16:45:40.953Z,72.90
2023-02-16T16:48:19.400Z,79.57
2023-02-16T16:50:46.610Z,75.80
2023-02-16T16:53:29.126Z,77.25
2023-02-16T16:55:56.987Z,79.40
2023-02-16T16:58:24.038Z,83.45
2023-02-16T17:00:50.798Z,80.55
2023-02-16T17:03:18.044Z,79.97
2023-02-16T17:05:45.243Z,88.75
2023-02-16T17:08:12.406Z,83.53
2023-02-16T17:10:40.339Z,79.15
2023-02-16T17:13:07.690Z,77.07
2023-02-16T17:15:53.981Z,85.35
2023-02-16T17:18:21.598Z,88.57
2023-02-16T17:20:48.610Z,96.38
2023-02-16T17:23:16.606Z,100.35
2023-02-16T17:25:43.525Z,103.65
2023-02-16T17:28:10.727Z,104.30
2023-02-16T17:30:37.768Z,103.32
2023-02-16T17:33:07.063Z,107.75
2023-02-16T17:35:33.919Z,106.85
2023-02-16T17:38:07.332Z,112.65
2023-02-16T17:40:34.275Z,101.53
2023-02-16T17:43:01.477Z,105.47
2023-02-16T17:45:28.292Z,103.53
2023-02-16T17:47:55.383Z,100.03
2023-02-16T17:50:22.265Z,101.85
2023-02-16T17:52:49.363Z,103.15
2023-02-16T17:55:16.261Z,106.72
2023-02-16T17:57:43.366Z,109.50
2023-02-16T18:00:14.263Z,107.28
2023-02-16T18:02:41.375Z,105.57
2023-02-16T18:05:08.294Z,112.57
2023-02-16T18:07:35.582Z,109.40
2023-02-16T18:10:02.532Z,114.57
2023-02-16T18:12:29.625Z,107.93
2023-02-16T18:14:56.746Z,110.72
2023-02-16T18:17:24.118Z,104.18
2023-02-16T18:19:50.909Z,99.13
2023-02-16T18:22:18.036Z,101.68
2023-02-16T18:24:45.155Z,101.30
2023-02-16T18:27:12.301Z,106.45
2023-02-16T18:29:39.088Z,102.90
2023-02-16T18:32:06.320Z,98.03
2023-02-16T18:34:35.049Z,103.30
2023-02-16T18:37:02.226Z,105.43
2023-02-16T18:39:29.326Z,102.95
2023-02-16T18:41:56.442Z,106.25
2023-02-16T18:44:23.216Z,106.63
2023-02-16T18:46:50.421Z,94.60
2023-02-16T18:49:17.184Z,98.00
2023-02-16T18:51:44.255Z,102.07
2023-02-16T18:54:11.043Z,100.03
2023-02-16T18:56:39.184Z,103.15
2023-02-16T18:59:06.248Z,101.22
2023-02-16T19:01:33.804Z,100.43
2023-02-16T19:04:01.386Z,91.90
2023-02-16T19:06:28.860Z,99.55
2023-02-16T19:08:56.418Z,99.00
2023-02-16T19:11:23.586Z,100.45
2023-02-16T19:13:50.442Z,98.05
2023-02-16T19:16:17.798Z,97.18
2023-02-16T19:18:44.705Z,98.28
2023-02-16T19:21:12.601Z,102.53
2023-02-16T19:23:39.504Z,101.63
2023-02-16T19:26:08.013Z,92.25
2023-02-16T19:28:35.265Z,93.20
2023-02-16T19:31:03.542Z,97.82
2023-02-16T19:33:30.643Z,92.68
2023-02-16T19:36:02.591Z,91.82
2023-02-16T19:38:29.943Z,96.82
2023-02-16T19:40:57.130Z,96.82
2023-02-16T19:43:24.561Z,103.53
2023-02-16T19:45:52.912Z,101.90
2023-02-16T19:48:19.699Z,93.85
2023-02-16T19:50:46.766Z,98.25
2023-02-16T19:53:13.554Z,96.93
2023-02-16T19:55:42.057Z,99.93
2023-02-16T19:58:08.837Z,110.22
2023-02-16T20:00:37.703Z,104.60
2023-02-16T20:03:04.734Z,105.55
2023-02-16T20:05:32.436Z,115.70
2023-02-16T20:08:02.181Z,118.80
2023-02-16T20:10:30.317Z,114.05
2023-02-16T20:12:57.077Z,112.05
2023-02-16T20:15:24.163Z,111.85
2023-02-16T20:17:51.043Z,118.30
2023-02-16T20:20:18.572Z,124.47
2023-02-16T20:22:45.380Z,120.80
2023-02-16T20:25:12.493Z,118.72
2023-02-16T20:27:39.323Z,119.80
2023-02-16T20:30:07.122Z,113.97
2023-02-16T20:32:33.970Z,113.10
2023-02-16T20:35:05.181Z,113.50
2023-02-16T20:37:31.997Z,110.10
2023-02-16T20:39:59.132Z,116.00
2023-02-16T20:42:26.089Z,108.38
2023-02-16T20:44:53.256Z,109.40
2023-02-16T20:47:20.111Z,109.93
2023-02-16T20:49:47.246Z,111.57
2023-02-16T20:52:14.522Z,103.03
2023-02-16T20:54:41.715Z,109.95
2023-02-16T20:57:21.290Z,113.38
2023-02-16T20:59:53.064Z,110.63
2023-02-16T21:02:19.868Z,103.28
2023-02-16T21:04:47.227Z,103.85
2023-02-16T21:07:14.055Z,105.85
2023-02-16T21:09:41.403Z,103.75
2023-02-16T21:12:08.253Z,102.72
2023-02-16T21:14:35.340Z,99.20
2023-02-16T21:17:02.163Z,108.28
2023-02-16T21:19:29.241Z,106.40
2023-02-16T21:21:56.025Z,97.75
2023-02-16T21:24:23.245Z,95.25
2023-02-16T21:26:50.014Z,99.78
2023-02-16T21:29:17.195Z,101.43
2023-02-16T21:31:44.201Z,95.35
2023-02-16T21:34:11.373Z,93.80
2023-02-16T21:36:38.924Z,92.18
2023-02-16T21:39:06.113Z,92.00
2023-02-16T21:41:32.890Z,96.05
2023-02-16T21:44:12.131Z,98.47
2023-02-16T21:46:46.582Z,89.80
2023-02-16T21:49:15.542Z,90.70
2023-02-16T21:51:42.956Z,91.38
2023-02-16T21:54:13.763Z,92.72
2023-02-16T21:56:42.749Z,92.55
2023-02-16T21:59:11.836Z,96.38
2023-02-16T22:01:51.021Z,87.60
2023-02-16T22:04:20.134Z,88.78
2023-02-16T22:06:47.669Z,92.25
2023-02-16T22:09:17.620Z,86.68
2023-02-16T22:11:44.899Z,88.63
2023-02-16T22:14:12.080Z,92.13
2023-02-16T22:16:39.224Z,94.18
2023-02-16T22:19:08.346Z,89.55
2023-02-16T22:21:36.872Z,90.55
2023-02-16T22:24:04.254Z,83.05
2023-02-16T22:26:32.300Z,90.55
2023-02-16T22:28:59.346Z,84.80
2023-02-16T22:31:27.001Z,87.88
2023-02-16T22:33:58.405Z,93.45
2023-02-16T22:36:25.372Z,86.57
2023-02-16T22:38:52.960Z,87.63
2023-02-16T22:41:19.908Z,91.20
2023-02-16T22:43:47.046Z,87.80
2023-02-16T22:46:15.995Z,82.30
2023-02-16T22:48:43.510Z,89.47
2023-02-16T22:51:12.175Z,86.65
2023-02-16T22:53:39.437Z,84.47
2023-02-16T22:56:07.625Z,89.70
2023-02-16T22:58:35.021Z,84.47
2023-02-16T23:01:01.810Z,88.45
2023-02-16T23:03:29.251Z,77.53
2023-02-16T23:05:56.028Z,81.90
2023-02-16T23:08:23.132Z,82.60
2023-02-16T23:11:02.047Z,85.10
2023-02-16T23:13:30.346Z,84.07
2023-02-16T23:15:57.337Z,78.47
2023-02-16T23:18:24.756Z,82.20
2023-02-16T23:20:51.584Z,85.15
2023-02-16T23:23:18.786Z,81.88
2023-02-16T23:25:46.541Z,75.97
2023-02-16T23:28:13.737Z,78.20
2023-02-16T23:30:44.721Z,83.63
2023-02-16T23:33:12.199Z,79.20
2023-02-16T23:35:39.652Z,79.43
2023-02-16T23:38:07.677Z,81.53
2023-02-16T23:40:34.515Z,81.47
2023-02-16T23:43:01.612Z,86.18
2023-02-16T23:45:28.430Z,81.38
2023-02-16T23:47:55.496Z,80.05
2023-02-16T23:50:22.360Z,82.95
2023-02-16T23:52:49.460Z,76.95
2023-02-16T23:55:16.233Z,79.57
2023-02-16T23:57:43.303Z,80.22
